sensor_id;sensor_type;location;lat;lon;timestamp;P1;durP1;ratioP1;P2;durP2;ratioP2
75928;SDS011;64606;44.062;2.986;2023-11-21T00:01:37;12.98;;;1.80;;
75928;SDS011;64606;44.062;2.986;2023-11-21T00:04:04;11.10;;;1.83;;
75928;SDS011;64606;44.062;2.986;2023-11-21T00:06:32;10.95;;;1.58;;
75928;SDS011;64606;44.062;2.986;2023-11-21T00:08:59;12.95;;;1.75;;
75928;SDS011;64606;44.062;2.986;2023-11-21T00:11:25;8.07;;;1.77;;
75928;SDS011;64606;44.062;2.986;2023-11-21T00:13:51;9.65;;;1.35;;
75928;SDS011;64606;44.062;2.986;2023-11-21T00:16:17;7.63;;;1.50;;
75928;SDS011;64606;44.062;2.986;2023-11-21T00:18:44;10.32;;;2.10;;
75928;SDS011;64606;44.062;2.986;2023-11-21T00:21:11;6.05;;;1.20;;
75928;SDS011;64606;44.062;2.986;2023-11-21T00:23:37;8.93;;;1.90;;
75928;SDS011;64606;44.062;2.986;2023-11-21T00:26:04;10.32;;;1.60;;
75928;SDS011;64606;44.062;2.986;2023-11-21T00:28:30;10.15;;;1.40;;
75928;SDS011;64606;44.062;2.986;2023-11-21T00:30:56;8.52;;;1.30;;
75928;SDS011;64606;44.062;2.986;2023-11-21T00:33:22;13.45;;;1.48;;
75928;SDS011;64606;44.062;2.986;2023-11-21T00:35:50;10.70;;;1.40;;
75928;SDS011;64606;44.062;2.986;2023-11-21T00:38:16;6.93;;;1.45;;
75928;SDS011;64606;44.062;2.986;2023-11-21T00:40:45;8.90;;;1.88;;
75928;SDS011;64606;44.062;2.986;2023-11-21T00:43:11;10.75;;;1.45;;
75928;SDS011;64606;44.062;2.986;2023-11-21T00:45:37;8.52;;;1.30;;
75928;SDS011;64606;44.062;2.986;2023-11-21T00:48:05;9.50;;;1.15;;
75928;SDS011;64606;44.062;2.986;2023-11-21T00:50:33;10.07;;;1.52;;
75928;SDS011;64606;44.062;2.986;2023-11-21T00:52:59;7.35;;;1.10;;
75928;SDS011;64606;44.062;2.986;2023-11-21T00:55:27;7.18;;;1.67;;
75928;SDS011;64606;44.062;2.986;2023-11-21T00:57:55;11.10;;;1.27;;
75928;SDS011;64606;44.062;2.986;2023-11-21T01:00:21;7.68;;;1.17;;
75928;SDS011;64606;44.062;2.986;2023-11-21T01:02:48;10.35;;;1.25;;
75928;SDS011;64606;44.062;2.986;2023-11-21T01:05:14;7.15;;;1.40;;
75928;SDS011;64606;44.062;2.986;2023-11-21T01:07:40;7.60;;;1.20;;
75928;SDS011;64606;44.062;2.986;2023-11-21T01:10:06;7.30;;;1.25;;
75928;SDS011;64606;44.062;2.986;2023-11-21T01:12:36;9.15;;;1.23;;
75928;SDS011;64606;44.062;2.986;2023-11-21T01:15:03;5.75;;;0.98;;
75928;SDS011;64606;44.062;2.986;2023-11-21T01:17:32;8.27;;;1.20;;
75928;SDS011;64606;44.062;2.986;2023-11-21T01:19:59;10.65;;;1.63;;
75928;SDS011;64606;44.062;2.986;2023-11-21T01:22:25;9.93;;;1.40;;
75928;SDS011;64606;44.062;2.986;2023-11-21T01:24:54;7.38;;;1.20;;
75928;SDS011;64606;44.062;2.986;2023-11-21T01:27:21;5.90;;;1.25;;
75928;SDS011;64606;44.062;2.986;2023-11-21T01:29:47;6.70;;;1.25;;
75928;SDS011;64606;44.062;2.986;2023-11-21T01:32:13;10.63;;;1.48;;
75928;SDS011;64606;44.062;2.986;2023-11-21T01:34:39;8.73;;;1.00;;
75928;SDS011;64606;44.062;2.986;2023-11-21T01:37:05;7.38;;;1.20;;
75928;SDS011;64606;44.062;2.986;2023-11-21T01:39:32;9.50;;;1.38;;
75928;SDS011;64606;44.062;2.986;2023-11-21T01:41:58;7.68;;;1.33;;
75928;SDS011;64606;44.062;2.986;2023-11-21T01:44:24;9.23;;;1.15;;
75928;SDS011;64606;44.062;2.986;2023-11-21T01:46:50;15.80;;;1.27;;
75928;SDS011;64606;44.062;2.986;2023-11-21T01:49:17;12.75;;;1.40;;
75928;SDS011;64606;44.062;2.986;2023-11-21T01:51:46;6.72;;;1.20;;
75928;SDS011;64606;44.062;2.986;2023-11-21T01:54:12;6.00;;;1.02;;
75928;SDS011;64606;44.062;2.986;2023-11-21T01:56:38;7.90;;;1.00;;
75928;SDS011;64606;44.062;2.986;2023-11-21T01:59:05;5.25;;;1.33;;
75928;SDS011;64606;44.062;2.986;2023-11-21T02:01:32;6.55;;;1.00;;
75928;SDS011;64606;44.062;2.986;2023-11-21T02:03:59;4.70;;;0.98;;
75928;SDS011;64606;44.062;2.986;2023-11-21T02:06:25;4.90;;;0.80;;
75928;SDS011;64606;44.062;2.986;2023-11-21T02:08:51;6.72;;;1.05;;
75928;SDS011;64606;44.062;2.986;2023-11-21T02:11:18;6.88;;;0.95;;
75928;SDS011;64606;44.062;2.986;2023-11-21T02:13:44;4.90;;;0.80;;
75928;SDS011;64606;44.062;2.986;2023-11-21T02:16:12;4.53;;;1.08;;
75928;SDS011;64606;44.062;2.986;2023-11-21T02:18:39;5.57;;;0.90;;
75928;SDS011;64606;44.062;2.986;2023-11-21T02:21:06;7.93;;;1.00;;
75928;SDS011;64606;44.062;2.986;2023-11-21T02:23:33;3.60;;;1.10;;
75928;SDS011;64606;44.062;2.986;2023-11-21T02:25:59;5.78;;;1.00;;
75928;SDS011;64606;44.062;2.986;2023-11-21T02:28:29;9.05;;;1.30;;
75928;SDS011;64606;44.062;2.986;2023-11-21T02:30:55;6.68;;;0.95;;
75928;SDS011;64606;44.062;2.986;2023-11-21T02:33:23;11.02;;;1.02;;
75928;SDS011;64606;44.062;2.986;2023-11-21T02:35:49;3.55;;;1.20;;
75928;SDS011;64606;44.062;2.986;2023-11-21T02:38:20;6.35;;;1.13;;
75928;SDS011;64606;44.062;2.986;2023-11-21T02:40:46;8.32;;;1.02;;
75928;SDS011;64606;44.062;2.986;2023-11-21T02:43:12;6.20;;;0.85;;
75928;SDS011;64606;44.062;2.986;2023-11-21T02:45:38;8.57;;;0.90;;
75928;SDS011;64606;44.062;2.986;2023-11-21T02:48:06;6.22;;;0.95;;
75928;SDS011;64606;44.062;2.986;2023-11-21T02:50:33;5.10;;;0.95;;
75928;SDS011;64606;44.062;2.986;2023-11-21T02:53:00;7.22;;;0.82;;
75928;SDS011;64606;44.062;2.986;2023-11-21T02:55:26;5.53;;;1.00;;
75928;SDS011;64606;44.062;2.986;2023-11-21T02:57:53;6.95;;;1.20;;
75928;SDS011;64606;44.062;2.986;2023-11-21T03:00:21;3.60;;;1.00;;
75928;SDS011;64606;44.062;2.986;2023-11-21T03:02:49;10.30;;;0.70;;
75928;SDS011;64606;44.062;2.986;2023-11-21T03:05:15;6.63;;;0.82;;
75928;SDS011;64606;44.062;2.986;2023-11-21T03:07:41;4.90;;;1.00;;
75928;SDS011;64606;44.062;2.986;2023-11-21T03:10:10;7.10;;;1.35;;
75928;SDS011;64606;44.062;2.986;2023-11-21T03:12:37;6.40;;;0.93;;
75928;SDS011;64606;44.062;2.986;2023-11-21T03:15:04;4.75;;;0.98;;
75928;SDS011;64606;44.062;2.986;2023-11-21T03:17:31;6.35;;;0.85;;
75928;SDS011;64606;44.062;2.986;2023-11-21T03:19:58;3.97;;;0.70;;
75928;SDS011;64606;44.062;2.986;2023-11-21T03:22:25;6.97;;;1.00;;
75928;SDS011;64606;44.062;2.986;2023-11-21T03:24:51;6.55;;;0.80;;
75928;SDS011;64606;44.062;2.986;2023-11-21T03:27:18;4.88;;;0.98;;
75928;SDS011;64606;44.062;2.986;2023-11-21T03:29:44;10.55;;;1.35;;
75928;SDS011;64606;44.062;2.986;2023-11-21T03:32:11;5.57;;;1.02;;
75928;SDS011;64606;44.062;2.986;2023-11-21T03:34:52;5.30;;;1.10;;
75928;SDS011;64606;44.062;2.986;2023-11-21T03:37:19;7.20;;;1.17;;
75928;SDS011;64606;44.062;2.986;2023-11-21T03:39:46;10.65;;;1.30;;
75928;SDS011;64606;44.062;2.986;2023-11-21T03:42:12;4.07;;;1.00;;
75928;SDS011;64606;44.062;2.986;2023-11-21T03:44:38;5.35;;;1.17;;
75928;SDS011;64606;44.062;2.986;2023-11-21T03:47:04;7.32;;;1.15;;
75928;SDS011;64606;44.062;2.986;2023-11-21T03:49:30;4.68;;;1.15;;
75928;SDS011;64606;44.062;2.986;2023-11-21T03:51:56;5.20;;;1.10;;
75928;SDS011;64606;44.062;2.986;2023-11-21T03:54:22;3.22;;;0.90;;
75928;SDS011;64606;44.062;2.986;2023-11-21T03:56:48;4.00;;;0.80;;
75928;SDS011;64606;44.062;2.986;2023-11-21T03:59:14;5.15;;;0.98;;
75928;SDS011;64606;44.062;2.986;2023-11-21T04:01:41;5.22;;;1.20;;
75928;SDS011;64606;44.062;2.986;2023-11-21T04:04:07;4.53;;;1.65;;
75928;SDS011;64606;44.062;2.986;2023-11-21T04:06:33;4.90;;;0.90;;
75928;SDS011;64606;44.062;2.986;2023-11-21T04:09:00;7.68;;;0.95;;
75928;SDS011;64606;44.062;2.986;2023-11-21T04:11:29;8.88;;;1.05;;
75928;SDS011;64606;44.062;2.986;2023-11-21T04:13:55;3.70;;;1.00;;
75928;SDS011;64606;44.062;2.986;2023-11-21T04:16:21;1.95;;;0.60;;
75928;SDS011;64606;44.062;2.986;2023-11-21T04:18:47;3.10;;;0.60;;
75928;SDS011;64606;44.062;2.986;2023-11-21T04:21:13;4.63;;;0.88;;
75928;SDS011;64606;44.062;2.986;2023-11-21T04:23:40;3.75;;;0.70;;
75928;SDS011;64606;44.062;2.986;2023-11-21T04:26:06;4.20;;;0.75;;
75928;SDS011;64606;44.062;2.986;2023-11-21T04:28:32;4.93;;;0.73;;
75928;SDS011;64606;44.062;2.986;2023-11-21T04:30:58;3.97;;;0.90;;
75928;SDS011;64606;44.062;2.986;2023-11-21T04:33:24;4.53;;;0.90;;
75928;SDS011;64606;44.062;2.986;2023-11-21T04:35:50;4.47;;;1.13;;
75928;SDS011;64606;44.062;2.986;2023-11-21T04:38:16;4.93;;;0.70;;
75928;SDS011;64606;44.062;2.986;2023-11-21T04:40:44;3.05;;;1.02;;
75928;SDS011;64606;44.062;2.986;2023-11-21T04:43:10;2.95;;;0.60;;
75928;SDS011;64606;44.062;2.986;2023-11-21T04:45:36;2.90;;;0.90;;
75928;SDS011;64606;44.062;2.986;2023-11-21T04:48:03;5.03;;;2.65;;
75928;SDS011;64606;44.062;2.986;2023-11-21T04:50:30;2.72;;;0.60;;
75928;SDS011;64606;44.062;2.986;2023-11-21T04:52:56;3.25;;;0.70;;
75928;SDS011;64606;44.062;2.986;2023-11-21T04:55:22;2.92;;;0.70;;
75928;SDS011;64606;44.062;2.986;2023-11-21T04:57:48;6.72;;;0.90;;
75928;SDS011;64606;44.062;2.986;2023-11-21T05:00:15;2.85;;;0.93;;
75928;SDS011;64606;44.062;2.986;2023-11-21T05:02:41;2.95;;;1.33;;
75928;SDS011;64606;44.062;2.986;2023-11-21T05:05:08;2.22;;;0.60;;
75928;SDS011;64606;44.062;2.986;2023-11-21T05:07:35;2.05;;;0.88;;
75928;SDS011;64606;44.062;2.986;2023-11-21T05:10:03;2.10;;;1.20;;
75928;SDS011;64606;44.062;2.986;2023-11-21T05:12:31;2.47;;;0.70;;
75928;SDS011;64606;44.062;2.986;2023-11-21T05:15:04;5.68;;;0.60;;
75928;SDS011;64606;44.062;2.986;2023-11-21T05:17:39;3.30;;;0.90;;
75928;SDS011;64606;44.062;2.986;2023-11-21T05:20:13;6.05;;;1.90;;
75928;SDS011;64606;44.062;2.986;2023-11-21T05:22:42;5.35;;;1.92;;
75928;SDS011;64606;44.062;2.986;2023-11-21T05:25:09;3.65;;;1.40;;
75928;SDS011;64606;44.062;2.986;2023-11-21T05:27:36;1.90;;;0.57;;
75928;SDS011;64606;44.062;2.986;2023-11-21T05:30:03;1.80;;;0.70;;
75928;SDS011;64606;44.062;2.986;2023-11-21T05:32:30;1.70;;;0.35;;
75928;SDS011;64606;44.062;2.986;2023-11-21T05:34:56;1.08;;;0.43;;
75928;SDS011;64606;44.062;2.986;2023-11-21T05:37:23;1.65;;;0.30;;
75928;SDS011;64606;44.062;2.986;2023-11-21T05:39:51;2.17;;;0.52;;
75928;SDS011;64606;44.062;2.986;2023-11-21T05:42:17;5.10;;;0.57;;
75928;SDS011;64606;44.062;2.986;2023-11-21T05:44:44;0.52;;;0.25;;
75928;SDS011;64606;44.062;2.986;2023-11-21T05:47:10;0.63;;;0.20;;
75928;SDS011;64606;44.062;2.986;2023-11-21T05:49:38;0.65;;;0.20;;
75928;SDS011;64606;44.062;2.986;2023-11-21T05:52:04;0.73;;;0.20;;
75928;SDS011;64606;44.062;2.986;2023-11-21T05:54:31;0.95;;;0.20;;
75928;SDS011;64606;44.062;2.986;2023-11-21T05:56:57;3.95;;;0.50;;
75928;SDS011;64606;44.062;2.986;2023-11-21T05:59:23;0.60;;;0.35;;
75928;SDS011;64606;44.062;2.986;2023-11-21T06:01:49;1.23;;;0.30;;
75928;SDS011;64606;44.062;2.986;2023-11-21T06:04:15;3.03;;;0.57;;
75928;SDS011;64606;44.062;2.986;2023-11-21T06:06:41;0.52;;;0.25;;
75928;SDS011;64606;44.062;2.986;2023-11-21T06:09:07;1.30;;;0.30;;
75928;SDS011;64606;44.062;2.986;2023-11-21T06:11:34;1.27;;;0.50;;
75928;SDS011;64606;44.062;2.986;2023-11-21T06:14:01;0.85;;;0.20;;
75928;SDS011;64606;44.062;2.986;2023-11-21T06:16:27;0.40;;;0.30;;
75928;SDS011;64606;44.062;2.986;2023-11-21T06:18:54;1.02;;;0.30;;
75928;SDS011;64606;44.062;2.986;2023-11-21T06:21:20;17.60;;;0.43;;
75928;SDS011;64606;44.062;2.986;2023-11-21T06:23:46;0.77;;;0.10;;
75928;SDS011;64606;44.062;2.986;2023-11-21T06:26:12;0.30;;;0.20;;
75928;SDS011;64606;44.062;2.986;2023-11-21T06:28:39;0.63;;;0.20;;
75928;SDS011;64606;44.062;2.986;2023-11-21T06:31:06;0.38;;;0.10;;
75928;SDS011;64606;44.062;2.986;2023-11-21T06:33:32;1.92;;;0.13;;
75928;SDS011;64606;44.062;2.986;2023-11-21T06:35:58;0.40;;;0.10;;
75928;SDS011;64606;44.062;2.986;2023-11-21T06:38:28;1.63;;;0.35;;
75928;SDS011;64606;44.062;2.986;2023-11-21T06:40:57;4.78;;;1.33;;
75928;SDS011;64606;44.062;2.986;2023-11-21T06:43:24;4.68;;;1.67;;
75928;SDS011;64606;44.062;2.986;2023-11-21T06:45:50;2.58;;;1.20;;
75928;SDS011;64606;44.062;2.986;2023-11-21T06:48:16;10.65;;;3.22;;
75928;SDS011;64606;44.062;2.986;2023-11-21T06:50:42;11.10;;;3.85;;
75928;SDS011;64606;44.062;2.986;2023-11-21T06:53:08;12.23;;;4.70;;
75928;SDS011;64606;44.062;2.986;2023-11-21T06:55:35;15.70;;;5.35;;
75928;SDS011;64606;44.062;2.986;2023-11-21T06:58:01;20.23;;;4.72;;
75928;SDS011;64606;44.062;2.986;2023-11-21T07:00:27;15.15;;;4.70;;
75928;SDS011;64606;44.062;2.986;2023-11-21T07:02:54;12.05;;;4.38;;
75928;SDS011;64606;44.062;2.986;2023-11-21T07:05:20;15.00;;;5.05;;
75928;SDS011;64606;44.062;2.986;2023-11-21T07:07:46;4.28;;;2.17;;
75928;SDS011;64606;44.062;2.986;2023-11-21T07:10:13;4.93;;;1.83;;
75928;SDS011;64606;44.062;2.986;2023-11-21T07:12:39;2.28;;;1.25;;
75928;SDS011;64606;44.062;2.986;2023-11-21T07:15:06;4.93;;;1.00;;
75928;SDS011;64606;44.062;2.986;2023-11-21T07:17:37;7.05;;;1.10;;
75928;SDS011;64606;44.062;2.986;2023-11-21T07:20:03;6.50;;;1.35;;
75928;SDS011;64606;44.062;2.986;2023-11-21T07:22:29;17.80;;;7.03;;
75928;SDS011;64606;44.062;2.986;2023-11-21T07:24:55;11.43;;;3.85;;
75928;SDS011;64606;44.062;2.986;2023-11-21T07:27:24;12.70;;;3.55;;
75928;SDS011;64606;44.062;2.986;2023-11-21T07:29:50;13.13;;;3.90;;
75928;SDS011;64606;44.062;2.986;2023-11-21T07:32:16;9.40;;;2.85;;
75928;SDS011;64606;44.062;2.986;2023-11-21T07:34:42;7.88;;;2.80;;
75928;SDS011;64606;44.062;2.986;2023-11-21T07:37:08;5.50;;;2.70;;
75928;SDS011;64606;44.062;2.986;2023-11-21T07:39:35;6.00;;;2.42;;
75928;SDS011;64606;44.062;2.986;2023-11-21T07:42:01;7.03;;;3.60;;
75928;SDS011;64606;44.062;2.986;2023-11-21T07:44:28;20.35;;;6.32;;
75928;SDS011;64606;44.062;2.986;2023-11-21T07:46:54;21.50;;;9.65;;
75928;SDS011;64606;44.062;2.986;2023-11-21T07:49:24;74.18;;;36.03;;
75928;SDS011;64606;44.062;2.986;2023-11-21T07:51:51;30.33;;;14.77;;
75928;SDS011;64606;44.062;2.986;2023-11-21T07:54:17;14.55;;;5.60;;
75928;SDS011;64606;44.062;2.986;2023-11-21T07:56:44;8.70;;;4.25;;
75928;SDS011;64606;44.062;2.986;2023-11-21T07:59:10;9.20;;;4.15;;
75928;SDS011;64606;44.062;2.986;2023-11-21T08:01:37;11.38;;;4.82;;
75928;SDS011;64606;44.062;2.986;2023-11-21T08:04:05;10.68;;;5.95;;
75928;SDS011;64606;44.062;2.986;2023-11-21T08:06:31;14.02;;;5.28;;
75928;SDS011;64606;44.062;2.986;2023-11-21T08:08:58;12.38;;;4.60;;
75928;SDS011;64606;44.062;2.986;2023-11-21T08:11:24;19.48;;;5.68;;
75928;SDS011;64606;44.062;2.986;2023-11-21T08:13:51;40.35;;;23.05;;
75928;SDS011;64606;44.062;2.986;2023-11-21T08:16:18;33.75;;;18.33;;
75928;SDS011;64606;44.062;2.986;2023-11-21T08:18:44;22.27;;;8.60;;
75928;SDS011;64606;44.062;2.986;2023-11-21T08:21:12;19.15;;;6.15;;
75928;SDS011;64606;44.062;2.986;2023-11-21T08:23:38;28.60;;;11.10;;
75928;SDS011;64606;44.062;2.986;2023-11-21T08:26:04;16.13;;;5.90;;
75928;SDS011;64606;44.062;2.986;2023-11-21T08:28:30;14.98;;;5.93;;
75928;SDS011;64606;44.062;2.986;2023-11-21T08:30:56;12.85;;;5.72;;
75928;SDS011;64606;44.062;2.986;2023-11-21T08:33:23;10.52;;;3.30;;
75928;SDS011;64606;44.062;2.986;2023-11-21T08:35:49;7.68;;;2.80;;
75928;SDS011;64606;44.062;2.986;2023-11-21T08:38:15;19.95;;;9.40;;
75928;SDS011;64606;44.062;2.986;2023-11-21T08:40:41;10.63;;;4.90;;
75928;SDS011;64606;44.062;2.986;2023-11-21T08:43:07;10.32;;;5.35;;
75928;SDS011;64606;44.062;2.986;2023-11-21T08:45:34;5.45;;;2.92;;
75928;SDS011;64606;44.062;2.986;2023-11-21T08:48:00;1.92;;;1.00;;
75928;SDS011;64606;44.062;2.986;2023-11-21T08:50:27;5.72;;;2.97;;
75928;SDS011;64606;44.062;2.986;2023-11-21T08:52:53;2.63;;;1.25;;
75928;SDS011;64606;44.062;2.986;2023-11-21T08:55:19;1.42;;;0.55;;
75928;SDS011;64606;44.062;2.986;2023-11-21T08:57:45;1.63;;;0.40;;
75928;SDS011;64606;44.062;2.986;2023-11-21T09:00:12;0.47;;;0.30;;
75928;SDS011;64606;44.062;2.986;2023-11-21T09:02:42;0.30;;;0.20;;
75928;SDS011;64606;44.062;2.986;2023-11-21T09:05:12;0.70;;;0.30;;
75928;SDS011;64606;44.062;2.986;2023-11-21T09:07:39;2.50;;;0.35;;
75928;SDS011;64606;44.062;2.986;2023-11-21T09:10:08;1.23;;;0.28;;
75928;SDS011;64606;44.062;2.986;2023-11-21T09:12:35;1.33;;;0.20;;
75928;SDS011;64606;44.062;2.986;2023-11-21T09:15:05;0.17;;;0.10;;
75928;SDS011;64606;44.062;2.986;2023-11-21T09:17:32;0.10;;;0.10;;
75928;SDS011;64606;44.062;2.986;2023-11-21T09:20:02;0.40;;;0.28;;
75928;SDS011;64606;44.062;2.986;2023-11-21T09:22:30;0.98;;;0.20;;
75928;SDS011;64606;44.062;2.986;2023-11-21T09:24:57;1.77;;;0.20;;
75928;SDS011;64606;44.062;2.986;2023-11-21T09:27:23;0.52;;;0.20;;
75928;SDS011;64606;44.062;2.986;2023-11-21T09:29:50;0.20;;;0.10;;
75928;SDS011;64606;44.062;2.986;2023-11-21T09:32:17;1.88;;;0.10;;
75928;SDS011;64606;44.062;2.986;2023-11-21T09:34:44;0.65;;;0.30;;
75928;SDS011;64606;44.062;2.986;2023-11-21T09:37:10;1.00;;;0.60;;
75928;SDS011;64606;44.062;2.986;2023-11-21T09:39:36;3.88;;;1.58;;
75928;SDS011;64606;44.062;2.986;2023-11-21T09:42:04;0.63;;;0.30;;
75928;SDS011;64606;44.062;2.986;2023-11-21T09:44:36;0.20;;;0.10;;
75928;SDS011;64606;44.062;2.986;2023-11-21T09:47:08;3.10;;;0.70;;
75928;SDS011;64606;44.062;2.986;2023-11-21T09:49:35;1.00;;;0.40;;
75928;SDS011;64606;44.062;2.986;2023-11-21T09:52:03;0.47;;;0.22;;
75928;SDS011;64606;44.062;2.986;2023-11-21T09:54:31;0.63;;;0.20;;
75928;SDS011;64606;44.062;2.986;2023-11-21T09:56:59;0.40;;;0.20;;
75928;SDS011;64606;44.062;2.986;2023-11-21T09:59:25;0.50;;;0.43;;
75928;SDS011;64606;44.062;2.986;2023-11-21T10:01:56;1.17;;;0.80;;
75928;SDS011;64606;44.062;2.986;2023-11-21T10:04:23;1.45;;;0.50;;
75928;SDS011;64606;44.062;2.986;2023-11-21T10:06:50;0.88;;;0.45;;
75928;SDS011;64606;44.062;2.986;2023-11-21T10:09:16;0.88;;;0.30;;
75928;SDS011;64606;44.062;2.986;2023-11-21T10:11:42;0.20;;;0.20;;
75928;SDS011;64606;44.062;2.986;2023-11-21T10:14:12;0.38;;;0.20;;
75928;SDS011;64606;44.062;2.986;2023-11-21T10:16:39;1.48;;;0.22;;
75928;SDS011;64606;44.062;2.986;2023-11-21T10:19:05;2.70;;;0.15;;
75928;SDS011;64606;44.062;2.986;2023-11-21T10:21:35;11.65;;;6.07;;
75928;SDS011;64606;44.062;2.986;2023-11-21T10:24:01;1.25;;;0.30;;
75928;SDS011;64606;44.062;2.986;2023-11-21T10:26:27;0.40;;;0.10;;
75928;SDS011;64606;44.062;2.986;2023-11-21T10:29:00;0.10;;;0.10;;
75928;SDS011;64606;44.062;2.986;2023-11-21T10:31:29;0.10;;;0.10;;
75928;SDS011;64606;44.062;2.986;2023-11-21T10:34:10;0.32;;;0.17;;
75928;SDS011;64606;44.062;2.986;2023-11-21T10:36:36;0.73;;;0.20;;
75928;SDS011;64606;44.062;2.986;2023-11-21T10:39:02;0.20;;;0.20;;
75928;SDS011;64606;44.062;2.986;2023-11-21T10:41:28;0.20;;;0.20;;
75928;SDS011;64606;44.062;2.986;2023-11-21T10:43:55;0.30;;;0.20;;
75928;SDS011;64606;44.062;2.986;2023-11-21T10:46:21;0.88;;;0.20;;
75928;SDS011;64606;44.062;2.986;2023-11-21T10:48:55;0.25;;;0.20;;
75928;SDS011;64606;44.062;2.986;2023-11-21T10:51:21;0.80;;;0.20;;
75928;SDS011;64606;44.062;2.986;2023-11-21T10:53:51;0.20;;;0.20;;
75928;SDS011;64606;44.062;2.986;2023-11-21T10:56:18;0.22;;;0.20;;
75928;SDS011;64606;44.062;2.986;2023-11-21T10:58:46;0.35;;;0.10;;
75928;SDS011;64606;44.062;2.986;2023-11-21T11:01:15;0.20;;;0.20;;
75928;SDS011;64606;44.062;2.986;2023-11-21T11:03:43;0.93;;;0.20;;
75928;SDS011;64606;44.062;2.986;2023-11-21T11:06:10;0.20;;;0.20;;
75928;SDS011;64606;44.062;2.986;2023-11-21T11:08:40;0.30;;;0.20;;
75928;SDS011;64606;44.062;2.986;2023-11-21T11:11:06;2.38;;;0.20;;
75928;SDS011;64606;44.062;2.986;2023-11-21T11:13:33;0.60;;;0.50;;
75928;SDS011;64606;44.062;2.986;2023-11-21T11:15:59;0.45;;;0.40;;
75928;SDS011;64606;44.062;2.986;2023-11-21T11:18:27;2.63;;;0.50;;
75928;SDS011;64606;44.062;2.986;2023-11-21T11:20:54;3.20;;;0.40;;
75928;SDS011;64606;44.062;2.986;2023-11-21T11:28:22;2.05;;;0.52;;
75928;SDS011;64606;44.062;2.986;2023-11-21T11:30:59;20.60;;;7.13;;
75928;SDS011;64606;44.062;2.986;2023-11-21T11:38:37;3.33;;;1.10;;
75928;SDS011;64606;44.062;2.986;2023-11-21T11:41:04;1.42;;;0.50;;
75928;SDS011;64606;44.062;2.986;2023-11-21T11:43:30;0.85;;;0.40;;
75928;SDS011;64606;44.062;2.986;2023-11-21T11:45:58;0.40;;;0.30;;
75928;SDS011;64606;44.062;2.986;2023-11-21T11:48:28;0.35;;;0.30;;
75928;SDS011;64606;44.062;2.986;2023-11-21T11:51:01;0.40;;;0.30;;
75928;SDS011;64606;44.062;2.986;2023-11-21T11:53:35;0.20;;;0.20;;
75928;SDS011;64606;44.062;2.986;2023-11-21T11:58:48;0.20;;;0.20;;
75928;SDS011;64606;44.062;2.986;2023-11-21T12:01:16;2.95;;;0.30;;
75928;SDS011;64606;44.062;2.986;2023-11-21T12:03:42;1.13;;;0.63;;
75928;SDS011;64606;44.062;2.986;2023-11-21T12:06:08;2.92;;;0.73;;
75928;SDS011;64606;44.062;2.986;2023-11-21T12:08:36;0.55;;;0.30;;
75928;SDS011;64606;44.062;2.986;2023-11-21T12:11:03;0.68;;;0.38;;
75928;SDS011;64606;44.062;2.986;2023-11-21T12:13:30;0.30;;;0.13;;
75928;SDS011;64606;44.062;2.986;2023-11-21T12:15:56;0.75;;;0.30;;
75928;SDS011;64606;44.062;2.986;2023-11-21T12:18:23;0.95;;;0.35;;
75928;SDS011;64606;44.062;2.986;2023-11-21T12:20:51;1.77;;;0.30;;
75928;SDS011;64606;44.062;2.986;2023-11-21T12:23:17;2.22;;;0.90;;
75928;SDS011;64606;44.062;2.986;2023-11-21T12:25:44;0.60;;;0.40;;
75928;SDS011;64606;44.062;2.986;2023-11-21T12:28:10;0.80;;;0.30;;
75928;SDS011;64606;44.062;2.986;2023-11-21T12:30:37;0.60;;;0.35;;
75928;SDS011;64606;44.062;2.986;2023-11-21T12:33:03;3.05;;;0.40;;
75928;SDS011;64606;44.062;2.986;2023-11-21T12:35:32;1.50;;;0.50;;
75928;SDS011;64606;44.062;2.986;2023-11-21T12:38:02;0.43;;;0.25;;
75928;SDS011;64606;44.062;2.986;2023-11-21T12:40:29;0.77;;;0.30;;
75928;SDS011;64606;44.062;2.986;2023-11-21T12:42:58;0.50;;;0.30;;
75928;SDS011;64606;44.062;2.986;2023-11-21T12:45:26;2.08;;;0.40;;
75928;SDS011;64606;44.062;2.986;2023-11-21T12:47:56;2.60;;;0.90;;
75928;SDS011;64606;44.062;2.986;2023-11-21T12:50:25;1.10;;;0.60;;
75928;SDS011;64606;44.062;2.986;2023-11-21T12:55:25;0.95;;;0.40;;
75928;SDS011;64606;44.062;2.986;2023-11-21T12:57:52;0.65;;;0.40;;
75928;SDS011;64606;44.062;2.986;2023-11-21T13:00:33;1.48;;;0.70;;
75928;SDS011;64606;44.062;2.986;2023-11-21T13:03:02;0.30;;;0.30;;
75928;SDS011;64606;44.062;2.986;2023-11-21T13:05:35;1.13;;;0.40;;
75928;SDS011;64606;44.062;2.986;2023-11-21T13:08:05;0.70;;;0.30;;
75928;SDS011;64606;44.062;2.986;2023-11-21T13:10:33;0.30;;;0.30;;
75928;SDS011;64606;44.062;2.986;2023-11-21T13:13:01;1.63;;;0.70;;
75928;SDS011;64606;44.062;2.986;2023-11-21T13:15:30;0.93;;;0.38;;
75928;SDS011;64606;44.062;2.986;2023-11-21T13:17:58;0.70;;;0.30;;
75928;SDS011;64606;44.062;2.986;2023-11-21T13:20:24;1.00;;;0.30;;
75928;SDS011;64606;44.062;2.986;2023-11-21T13:22:52;1.77;;;0.45;;
75928;SDS011;64606;44.062;2.986;2023-11-21T13:25:26;0.73;;;0.45;;
75928;SDS011;64606;44.062;2.986;2023-11-21T13:27:55;0.40;;;0.30;;
75928;SDS011;64606;44.062;2.986;2023-11-21T13:30:22;0.45;;;0.40;;
75928;SDS011;64606;44.062;2.986;2023-11-21T13:32:51;0.75;;;0.40;;
75928;SDS011;64606;44.062;2.986;2023-11-21T13:35:18;1.75;;;0.40;;
75928;SDS011;64606;44.062;2.986;2023-11-21T13:37:55;1.20;;;0.40;;
75928;SDS011;64606;44.062;2.986;2023-11-21T13:40:22;3.60;;;0.60;;
75928;SDS011;64606;44.062;2.986;2023-11-21T13:42:54;0.38;;;0.30;;
75928;SDS011;64606;44.062;2.986;2023-11-21T13:45:24;2.33;;;0.55;;
75928;SDS011;64606;44.062;2.986;2023-11-21T13:47:53;0.28;;;0.28;;
75928;SDS011;64606;44.062;2.986;2023-11-21T13:50:24;1.85;;;0.32;;
75928;SDS011;64606;44.062;2.986;2023-11-21T13:52:57;0.30;;;0.30;;
75928;SDS011;64606;44.062;2.986;2023-11-21T13:55:28;0.60;;;0.22;;
75928;SDS011;64606;44.062;2.986;2023-11-21T13:57:54;0.77;;;0.30;;
75928;SDS011;64606;44.062;2.986;2023-11-21T14:00:20;1.77;;;0.45;;
75928;SDS011;64606;44.062;2.986;2023-11-21T14:03:05;0.88;;;0.40;;
75928;SDS011;64606;44.062;2.986;2023-11-21T14:05:36;1.17;;;0.30;;
75928;SDS011;64606;44.062;2.986;2023-11-21T14:08:02;3.05;;;0.40;;
75928;SDS011;64606;44.062;2.986;2023-11-21T14:10:32;0.93;;;0.40;;
75928;SDS011;64606;44.062;2.986;2023-11-21T14:13:05;0.98;;;0.38;;
75928;SDS011;64606;44.062;2.986;2023-11-21T14:15:32;2.35;;;0.32;;
75928;SDS011;64606;44.062;2.986;2023-11-21T14:18:02;1.77;;;0.77;;
75928;SDS011;64606;44.062;2.986;2023-11-21T14:20:32;3.05;;;1.00;;
75928;SDS011;64606;44.062;2.986;2023-11-21T14:23:01;3.30;;;0.70;;
75928;SDS011;64606;44.062;2.986;2023-11-21T14:25:27;0.93;;;0.50;;
75928;SDS011;64606;44.062;2.986;2023-11-21T14:27:53;0.65;;;0.40;;
75928;SDS011;64606;44.062;2.986;2023-11-21T14:30:21;2.78;;;0.70;;
75928;SDS011;64606;44.062;2.986;2023-11-21T14:32:47;1.30;;;0.52;;
75928;SDS011;64606;44.062;2.986;2023-11-21T14:35:15;4.88;;;1.30;;
75928;SDS011;64606;44.062;2.986;2023-11-21T14:37:42;1.00;;;0.50;;
75928;SDS011;64606;44.062;2.986;2023-11-21T14:40:09;1.33;;;0.43;;
75928;SDS011;64606;44.062;2.986;2023-11-21T14:42:35;0.73;;;0.50;;
75928;SDS011;64606;44.062;2.986;2023-11-21T14:45:04;10.93;;;3.97;;
75928;SDS011;64606;44.062;2.986;2023-11-21T14:47:32;5.45;;;2.05;;
75928;SDS011;64606;44.062;2.986;2023-11-21T14:50:02;2.22;;;0.82;;
75928;SDS011;64606;44.062;2.986;2023-11-21T14:52:48;2.75;;;1.08;;
75928;SDS011;64606;44.062;2.986;2023-11-21T14:55:24;2.85;;;1.00;;
75928;SDS011;64606;44.062;2.986;2023-11-21T14:58:09;2.75;;;1.20;;
75928;SDS011;64606;44.062;2.986;2023-11-21T15:00:40;1.17;;;0.52;;
75928;SDS011;64606;44.062;2.986;2023-11-21T15:03:10;3.10;;;0.80;;